ADDS METAR Data INFO
IDs: Format: Raw Decoded Include TAF

Data at: 1733 UTC 15 Dec 2017

K3T5 151715Z AUTO 02005KT 10SM CLR 11/00 A3031 RMK AO2 T01100000
K3T5 151655Z AUTO 01006KT 10SM CLR 11/00 A3032 RMK AO2 T01090001
K3T5 151635Z AUTO 01006KT 10SM CLR 10/00 A3032 RMK AO2 T01040000
K3T5 151615Z AUTO 02007KT 10SM CLR 10/00 A3031 RMK AO2 T01020000
K3T5 151555Z AUTO 03007KT 10SM CLR 10/00 A3030 RMK AO2 T01010000
K3T5 151535Z AUTO 02008KT 10SM CLR 10/00 A3030 RMK AO2 T01000001
K3T5 151515Z AUTO 02005KT 10SM CLR 09/00 A3029 RMK AO2 T00940000
K3T5 151455Z AUTO 36004KT 10SM CLR 09/00 A3029 RMK AO2 T00900000
K3T5 151435Z AUTO 36004KT 10SM CLR 09/00 A3028 RMK AO2 T00880000
K3T5 151415Z AUTO 36005KT 10SM CLR 09/00 A3027 RMK AO2 T00870000
K3T5 151355Z AUTO 36004KT 10SM CLR 09/00 A3026 RMK AO2 T00880000
K3T5 151335Z AUTO 36005KT 10SM CLR 09/00 A3026 RMK AO2 T00890000
K3T5 151315Z AUTO 35005KT 10SM CLR 09/00 A3025 RMK AO2 T00900000
K3T5 151255Z AUTO 36004KT 10SM CLR 09/00 A3024 RMK AO2 T00901001
K3T5 151235Z AUTO 35007KT 10SM CLR 09/00 A3024 RMK AO2 T00930000
K3T5 151215Z AUTO 35005KT 10SM CLR 10/00 A3022 RMK AO2 T00951004
K3T5 151155Z AUTO 36004KT 10SM SCT120 10/00 A3021 RMK AO2 T00951002 10128 20095
K3T5 151135Z AUTO 36003KT 10SM BKN120 10/00 A3020 RMK AO2 T00971004
K3T5 151115Z AUTO 36004KT 10SM SCT090 OVC120 10/00 A3020 RMK AO2 T00981001
K3T5 151055Z AUTO 01006KT 10SM SCT090 OVC110 10/00 A3020 RMK AO2 T01001004
K3T5 151035Z AUTO 01004KT 10SM OVC110 10/00 A3021 RMK AO2 T01011004
K3T5 151015Z AUTO 02009KT 10SM OVC100 10/00 A3021 RMK AO2 T01031005
K3T5 150955Z AUTO 02008KT 10SM OVC090 11/00 A3021 RMK AO2 T01051003
K3T5 150935Z AUTO 01008G14KT 10SM OVC090 11/00 A3021 RMK AO2 T01061002
K3T5 150915Z AUTO 01008KT 10SM SCT070 OVC090 11/00 A3021 RMK AO2 T01071001
K3T5 150855Z AUTO 02006KT 10SM -RA OVC090 11/01 A3019 RMK AO2 T01050006
K3T5 150835Z AUTO 01006G15KT 10SM -RA OVC100 11/01 A3019 RMK AO2 T01080006
K3T5 150815Z AUTO 01011G14KT 10SM -DZ OVC110 11/00 A3018 RMK AO2 T01130002
K3T5 150755Z AUTO 01011G16KT 10SM -RA SCT060 BKN090 OVC110 12/00 A3017 RMK AO2 T01180001
K3T5 150735Z AUTO 01009G16KT 10SM SCT080 OVC100 12/00 A3016 RMK AO2 T01200001
K3T5 150715Z AUTO 01008KT 10SM OVC110 12/01 A3015 RMK AO2 T01210005
K3T5 150655Z AUTO 01007G16KT 10SM SCT060 BKN095 OVC110 12/00 A3015 RMK AO2 T01220004
K3T5 150635Z AUTO 01011KT 10SM OVC095 12/01 A3014 RMK AO2 T01240006
K3T5 150615Z AUTO 02009G15KT 10SM SCT095 OVC120 13/01 A3014 RMK AO2 T01270005
K3T5 150555Z AUTO 01007KT 10SM BKN120 13/01 A3015 RMK AO2 T01280005 10138 20111 401670056
K3T5 150535Z AUTO 02009KT 10SM BKN120 13/01 A3014 RMK AO2 T01300006
K3T5 150515Z AUTO 01007KT 10SM OVC120 13/01 A3014 RMK AO2 T01320010
K3T5 150455Z AUTO 02008KT 10SM BKN120 13/01 A3012 RMK AO2 T01330011
K3T5 150435Z AUTO 01008KT 10SM BKN120 14/01 A3011 RMK AO2 T01350014
K3T5 150415Z AUTO 01007KT 10SM SCT120 14/02 A3011 RMK AO2 T01350016
K3T5 150355Z AUTO 01008KT 10SM SCT120 14/02 A3010 RMK AO2 T01360019
K3T5 150335Z AUTO 01008KT 10SM SCT120 14/02 A3008 RMK AO2 T01360024
K3T5 150315Z AUTO 01005KT 10SM SCT120 14/03 A3008 RMK AO2 T01370029
K3T5 150255Z AUTO 36006KT 10SM CLR 14/04 A3007 RMK AO2 T01350040
K3T5 150235Z AUTO 36004KT 10SM SCT120 13/05 A3006 RMK AO2 T01300052
K3T5 150215Z AUTO 35004KT 10SM BKN120 12/06 A3005 RMK AO2 T01220062
K3T5 150155Z AUTO 00000KT 10SM SCT120 11/07 A3005 RMK AO2 T01120072
K3T5 150135Z AUTO 00000KT 10SM CLR 11/07 A3004 RMK AO2 T01130072
K3T5 150115Z AUTO 00000KT 10SM CLR 12/07 A3004 RMK AO2 T01160069
K3T5 150055Z AUTO 00000KT 10SM CLR 11/07 A3003 RMK AO2 T01140072
K3T5 150035Z AUTO 00000KT 10SM CLR 12/08 A3001 RMK AO2 T01150080
K3T5 150015Z AUTO 00000KT 10SM CLR 12/07 A3000 RMK AO2 T01220069
K3T5 142355Z AUTO 00000KT 10SM CLR 13/08 A3000 RMK AO2 T01250075 10167 20122
K3T5 142335Z AUTO 00000KT 10SM CLR 13/07 A2999 RMK AO2 T01310072
K3T5 142315Z AUTO 00000KT 10SM CLR 15/06 A2998 RMK AO2 T01470061
K3T5 142255Z AUTO 35003KT 10SM CLR 16/05 A2997 RMK AO2 T01580052
K3T5 142235Z AUTO 34003KT 10SM CLR 16/05 A2998 RMK AO2 T01630052
K3T5 142215Z AUTO 33005KT 10SM CLR 17/05 A2997 RMK AO2 T01660054
K3T5 142155Z AUTO 33004KT 10SM CLR 17/06 A2997 RMK AO2 T01660063
K3T5 142135Z AUTO 33004KT 10SM CLR 17/06 A2996 RMK AO2 T01650058
K3T5 142115Z AUTO 33005KT 10SM CLR 17/06 A2996 RMK AO2 T01660057
K3T5 142055Z AUTO 00000KT 10SM CLR 17/06 A2995 RMK AO2 T01660057
K3T5 142035Z AUTO 31004KT 10SM CLR 16/06 A2996 RMK AO2 T01640056
K3T5 142015Z AUTO 33005KT 10SM CLR 16/05 A2995 RMK AO2 T01610053
K3T5 141955Z AUTO 31005KT 10SM CLR 16/05 A2995 RMK AO2 T01620051
K3T5 141935Z AUTO 32005KT 10SM CLR 16/06 A2995 RMK AO2 T01600056
K3T5 141915Z AUTO 31006KT 10SM CLR 16/06 A2995 RMK AO2 T01550055
K3T5 141855Z AUTO 32005KT 10SM CLR 15/06 A2996 RMK AO2 T01520061
K3T5 141835Z AUTO 34005KT 10SM CLR 15/07 A2996 RMK AO2 T01500067
K3T5 141815Z AUTO 32003KT 10SM CLR 15/07 A2997 RMK AO2 T01540065
K3T5 141755Z AUTO 00000KT 10SM CLR 14/08 A2998 RMK AO2 T01410083 10141 20062
K3T5 141735Z AUTO 00000KT 10SM CLR 13/09 A2999 RMK AO2 T01310085
K3T5 141715Z AUTO 00000KT 10SM CLR 12/08 A2998 RMK AO2 T01200082
K3T5 141655Z AUTO 00000KT 10SM CLR 12/08 A2999 RMK AO2 T01160081
K3T5 141635Z AUTO 00000KT 10SM CLR 11/08 A2999 RMK AO2 T01060079
K3T5 141615Z AUTO 00000KT 10SM CLR 10/08 A2998 RMK AO2 T01010077
K3T5 141555Z AUTO 00000KT 10SM CLR 09/07 A2999 RMK AO2 T00940072
K3T5 141535Z AUTO 00000KT 10SM CLR 09/06 A2998 RMK AO2 T00910063
K3T5 141515Z AUTO 00000KT 10SM CLR 09/06 A2998 RMK AO2 T00860059
K3T5 141455Z AUTO 00000KT 10SM CLR 08/06 A2998 RMK AO2 T00820060
K3T5 141435Z AUTO 00000KT 10SM CLR 08/06 A2998 RMK AO2 T00760056
K3T5 141415Z AUTO 00000KT 10SM CLR 07/05 A2997 RMK AO2 T00710050
K3T5 141355Z AUTO 00000KT 10SM CLR 07/05 A2995 RMK AO2 T00660052
K3T5 141335Z AUTO 00000KT 10SM CLR 07/05 A2996 RMK AO2 T00710046
K3T5 141315Z AUTO 00000KT 10SM CLR 07/05 A2995 RMK AO2 T00730045
K3T5 141255Z AUTO 00000KT 10SM CLR 07/05 A2995 RMK AO2 T00720046
K3T5 141235Z AUTO 00000KT 10SM CLR 08/05 A2993 RMK AO2 T00750045
K3T5 141215Z AUTO 00000KT 10SM CLR 06/05 A2993 RMK AO2 T00640046
K3T5 141155Z AUTO 21003KT 10SM CLR 06/04 A2993 RMK AO2 T00610044 10093 20056
K3T5 141135Z AUTO 00000KT 10SM SCT120 06/05 A2992 RMK AO2 T00610048
K3T5 141115Z AUTO 00000KT 10SM SCT120 06/04 A2992 RMK AO2 T00570042
K3T5 141055Z AUTO 00000KT 10SM CLR 07/05 A2992 RMK AO2 T00700050
K3T5 141035Z AUTO 00000KT 10SM CLR 08/05 A2991 RMK AO2 T00760052
K3T5 141015Z AUTO 00000KT 10SM SCT120 08/05 A2991 RMK AO2 T00760051
K3T5 140955Z AUTO 00000KT 10SM SCT120 08/05 A2992 RMK AO2 T00750046
K3T5 140935Z AUTO 00000KT 10SM CLR 07/05 A2992 RMK AO2 T00700050
K3T5 140915Z AUTO 00000KT 10SM CLR 07/05 A2993 RMK AO2 T00710050
K3T5 140855Z AUTO 00000KT 10SM CLR 07/05 A2993 RMK AO2 T00710050
K3T5 140835Z AUTO 00000KT 10SM CLR 07/05 A2993 RMK AO2 T00710049
K3T5 140815Z AUTO 00000KT 10SM CLR 08/05 A2992 RMK AO2 T00800045
K3T5 140755Z AUTO 00000KT 10SM CLR 08/05 A2993 RMK AO2 T00750047
K3T5 140735Z AUTO 00000KT 10SM CLR 08/05 A2992 RMK AO2 T00820050
K3T5 140715Z AUTO 00000KT 10SM CLR 09/04 A2993 RMK AO2 T00920042
K3T5 140655Z AUTO 19003KT 10SM CLR 09/05 A2993 RMK AO2 T00880048
K3T5 140635Z AUTO 00000KT 10SM CLR 09/05 A2995 RMK AO2 T00890048
K3T5 140615Z AUTO 00000KT 10SM CLR 07/05 A2995 RMK AO2 T00690050
K3T5 140555Z AUTO 00000KT 10SM CLR 07/05 A2996 RMK AO2 T00660048 10120 20064 401590000
K3T5 140535Z AUTO 00000KT 10SM CLR 06/05 A2995 RMK AO2 T00640045